sensor_id;sensor_type;location;lat;lon;timestamp;P1;durP1;ratioP1;P2;durP2;ratioP2
26686;SDS011;14298;50.900;4.648;2024-01-07T00:01:13;2.33;;;2.17;;
26686;SDS011;14298;50.900;4.648;2024-01-07T00:03:41;3.17;;;2.97;;
26686;SDS011;14298;50.900;4.648;2024-01-07T00:06:12;3.40;;;3.03;;
26686;SDS011;14298;50.900;4.648;2024-01-07T00:08:40;2.77;;;2.53;;
26686;SDS011;14298;50.900;4.648;2024-01-07T00:11:08;3.43;;;3.13;;
26686;SDS011;14298;50.900;4.648;2024-01-07T00:13:36;3.40;;;3.07;;
26686;SDS011;14298;50.900;4.648;2024-01-07T00:16:04;4.57;;;3.30;;
26686;SDS011;14298;50.900;4.648;2024-01-07T00:18:35;3.23;;;2.93;;
26686;SDS011;14298;50.900;4.648;2024-01-07T00:21:03;2.73;;;2.53;;
26686;SDS011;14298;50.900;4.648;2024-01-07T00:23:31;4.33;;;3.67;;
26686;SDS011;14298;50.900;4.648;2024-01-07T00:25:59;3.30;;;3.00;;
26686;SDS011;14298;50.900;4.648;2024-01-07T00:28:27;4.17;;;3.77;;
26686;SDS011;14298;50.900;4.648;2024-01-07T00:30:55;3.07;;;2.77;;
26686;SDS011;14298;50.900;4.648;2024-01-07T00:33:23;4.47;;;3.23;;
26686;SDS011;14298;50.900;4.648;2024-01-07T00:35:51;2.87;;;2.60;;
26686;SDS011;14298;50.900;4.648;2024-01-07T00:38:19;5.23;;;3.80;;
26686;SDS011;14298;50.900;4.648;2024-01-07T00:40:47;6.37;;;3.17;;
26686;SDS011;14298;50.900;4.648;2024-01-07T00:43:15;3.57;;;3.17;;
26686;SDS011;14298;50.900;4.648;2024-01-07T00:45:45;3.87;;;3.37;;
26686;SDS011;14298;50.900;4.648;2024-01-07T00:48:13;3.33;;;3.07;;
26686;SDS011;14298;50.900;4.648;2024-01-07T00:50:42;6.30;;;3.97;;
26686;SDS011;14298;50.900;4.648;2024-01-07T00:53:10;2.97;;;2.77;;
26686;SDS011;14298;50.900;4.648;2024-01-07T00:55:40;3.43;;;2.93;;
26686;SDS011;14298;50.900;4.648;2024-01-07T00:58:09;6.17;;;3.00;;
26686;SDS011;14298;50.900;4.648;2024-01-07T01:00:37;2.93;;;2.77;;
26686;SDS011;14298;50.900;4.648;2024-01-07T01:03:05;3.03;;;2.80;;
26686;SDS011;14298;50.900;4.648;2024-01-07T01:05:36;6.93;;;3.60;;
26686;SDS011;14298;50.900;4.648;2024-01-07T01:08:04;2.33;;;1.97;;
26686;SDS011;14298;50.900;4.648;2024-01-07T01:10:33;2.30;;;2.10;;
26686;SDS011;14298;50.900;4.648;2024-01-07T01:13:04;3.70;;;3.40;;
26686;SDS011;14298;50.900;4.648;2024-01-07T01:15:32;3.77;;;3.47;;
26686;SDS011;14298;50.900;4.648;2024-01-07T01:18:01;6.17;;;3.87;;
26686;SDS011;14298;50.900;4.648;2024-01-07T01:25:43;3.90;;;2.13;;
26686;SDS011;14298;50.900;4.648;2024-01-07T01:28:11;3.00;;;2.80;;
26686;SDS011;14298;50.900;4.648;2024-01-07T01:30:39;3.97;;;3.63;;
26686;SDS011;14298;50.900;4.648;2024-01-07T01:33:08;4.87;;;4.40;;
26686;SDS011;14298;50.900;4.648;2024-01-07T01:35:36;5.20;;;3.93;;
26686;SDS011;14298;50.900;4.648;2024-01-07T01:38:03;3.57;;;3.27;;
26686;SDS011;14298;50.900;4.648;2024-01-07T01:40:31;5.37;;;3.83;;
26686;SDS011;14298;50.900;4.648;2024-01-07T01:43:01;2.67;;;2.47;;
26686;SDS011;14298;50.900;4.648;2024-01-07T01:45:29;4.83;;;3.50;;
26686;SDS011;14298;50.900;4.648;2024-01-07T01:47:57;3.43;;;3.23;;
26686;SDS011;14298;50.900;4.648;2024-01-07T01:50:25;2.77;;;2.57;;
26686;SDS011;14298;50.900;4.648;2024-01-07T01:52:53;5.23;;;3.13;;
26686;SDS011;14298;50.900;4.648;2024-01-07T01:55:23;4.30;;;3.63;;
26686;SDS011;14298;50.900;4.648;2024-01-07T01:57:51;4.40;;;3.67;;
26686;SDS011;14298;50.900;4.648;2024-01-07T02:00:19;2.87;;;2.67;;
26686;SDS011;14298;50.900;4.648;2024-01-07T02:02:47;3.13;;;2.93;;
26686;SDS011;14298;50.900;4.648;2024-01-07T02:05:15;4.70;;;3.40;;
26686;SDS011;14298;50.900;4.648;2024-01-07T02:12:52;3.83;;;3.50;;
26686;SDS011;14298;50.900;4.648;2024-01-07T02:15:20;6.57;;;4.83;;
26686;SDS011;14298;50.900;4.648;2024-01-07T02:23:22;3.20;;;2.90;;
26686;SDS011;14298;50.900;4.648;2024-01-07T02:28:27;3.60;;;3.30;;
26686;SDS011;14298;50.900;4.648;2024-01-07T02:30:57;8.03;;;4.73;;
26686;SDS011;14298;50.900;4.648;2024-01-07T02:33:25;5.13;;;4.63;;
26686;SDS011;14298;50.900;4.648;2024-01-07T02:35:53;6.50;;;5.00;;
26686;SDS011;14298;50.900;4.648;2024-01-07T02:38:33;6.33;;;5.77;;
26686;SDS011;14298;50.900;4.648;2024-01-07T02:41:01;6.53;;;5.90;;
26686;SDS011;14298;50.900;4.648;2024-01-07T02:43:29;8.67;;;6.17;;
26686;SDS011;14298;50.900;4.648;2024-01-07T02:45:58;5.80;;;5.30;;
26686;SDS011;14298;50.900;4.648;2024-01-07T02:53:52;6.07;;;4.27;;
26686;SDS011;14298;50.900;4.648;2024-01-07T02:56:20;7.37;;;5.30;;
26686;SDS011;14298;50.900;4.648;2024-01-07T02:58:49;5.03;;;4.57;;
26686;SDS011;14298;50.900;4.648;2024-01-07T03:01:21;7.37;;;5.53;;
26686;SDS011;14298;50.900;4.648;2024-01-07T03:03:47;6.60;;;5.83;;
26686;SDS011;14298;50.900;4.648;2024-01-07T03:06:15;5.20;;;4.73;;
26686;SDS011;14298;50.900;4.648;2024-01-07T03:08:43;5.53;;;5.07;;
26686;SDS011;14298;50.900;4.648;2024-01-07T03:11:11;6.50;;;5.97;;
26686;SDS011;14298;50.900;4.648;2024-01-07T03:13:40;10.63;;;7.03;;
26686;SDS011;14298;50.900;4.648;2024-01-07T03:16:08;4.90;;;4.50;;
26686;SDS011;14298;50.900;4.648;2024-01-07T03:18:36;5.37;;;4.90;;
26686;SDS011;14298;50.900;4.648;2024-01-07T03:21:04;6.20;;;5.60;;
26686;SDS011;14298;50.900;4.648;2024-01-07T03:23:32;6.67;;;5.20;;
26686;SDS011;14298;50.900;4.648;2024-01-07T03:26:00;6.87;;;6.17;;
26686;SDS011;14298;50.900;4.648;2024-01-07T03:28:28;4.30;;;3.80;;
26686;SDS011;14298;50.900;4.648;2024-01-07T03:30:56;5.77;;;5.13;;
26686;SDS011;14298;50.900;4.648;2024-01-07T03:33:24;13.57;;;5.93;;
26686;SDS011;14298;50.900;4.648;2024-01-07T03:35:52;6.03;;;5.43;;
26686;SDS011;14298;50.900;4.648;2024-01-07T03:38:20;8.23;;;6.57;;
26686;SDS011;14298;50.900;4.648;2024-01-07T03:40:47;6.50;;;5.87;;
26686;SDS011;14298;50.900;4.648;2024-01-07T03:43:15;5.10;;;4.53;;
26686;SDS011;14298;50.900;4.648;2024-01-07T03:45:43;8.77;;;6.33;;
26686;SDS011;14298;50.900;4.648;2024-01-07T03:48:11;8.17;;;5.73;;
26686;SDS011;14298;50.900;4.648;2024-01-07T03:50:39;6.70;;;5.40;;
26686;SDS011;14298;50.900;4.648;2024-01-07T03:53:08;7.03;;;6.07;;
26686;SDS011;14298;50.900;4.648;2024-01-07T03:55:36;12.17;;;4.87;;
26686;SDS011;14298;50.900;4.648;2024-01-07T03:58:04;7.87;;;7.13;;
26686;SDS011;14298;50.900;4.648;2024-01-07T04:00:33;6.50;;;5.87;;
26686;SDS011;14298;50.900;4.648;2024-01-07T04:03:01;9.17;;;6.50;;
26686;SDS011;14298;50.900;4.648;2024-01-07T04:05:29;9.00;;;4.60;;
26686;SDS011;14298;50.900;4.648;2024-01-07T04:07:57;11.57;;;5.90;;
26686;SDS011;14298;50.900;4.648;2024-01-07T04:10:25;6.80;;;4.80;;
26686;SDS011;14298;50.900;4.648;2024-01-07T04:12:53;9.67;;;6.90;;
26686;SDS011;14298;50.900;4.648;2024-01-07T04:15:21;5.43;;;4.93;;
26686;SDS011;14298;50.900;4.648;2024-01-07T04:17:52;7.77;;;5.20;;
26686;SDS011;14298;50.900;4.648;2024-01-07T04:22:56;6.20;;;5.60;;
26686;SDS011;14298;50.900;4.648;2024-01-07T04:25:25;4.47;;;3.37;;
26686;SDS011;14298;50.900;4.648;2024-01-07T04:27:53;9.30;;;5.63;;
26686;SDS011;14298;50.900;4.648;2024-01-07T04:30:21;6.00;;;4.47;;
26686;SDS011;14298;50.900;4.648;2024-01-07T04:32:49;5.70;;;4.17;;
26686;SDS011;14298;50.900;4.648;2024-01-07T04:35:17;5.70;;;4.73;;
26686;SDS011;14298;50.900;4.648;2024-01-07T04:37:45;5.80;;;5.07;;
26686;SDS011;14298;50.900;4.648;2024-01-07T04:40:15;5.17;;;4.67;;
26686;SDS011;14298;50.900;4.648;2024-01-07T04:45:19;6.67;;;5.90;;
26686;SDS011;14298;50.900;4.648;2024-01-07T04:47:47;6.63;;;5.93;;
26686;SDS011;14298;50.900;4.648;2024-01-07T04:50:18;7.53;;;5.40;;
26686;SDS011;14298;50.900;4.648;2024-01-07T04:52:48;7.70;;;6.43;;
26686;SDS011;14298;50.900;4.648;2024-01-07T04:55:16;8.03;;;7.13;;
26686;SDS011;14298;50.900;4.648;2024-01-07T04:57:44;6.20;;;5.60;;
26686;SDS011;14298;50.900;4.648;2024-01-07T05:00:12;6.23;;;5.37;;
26686;SDS011;14298;50.900;4.648;2024-01-07T05:02:40;11.27;;;7.23;;
26686;SDS011;14298;50.900;4.648;2024-01-07T05:05:08;6.10;;;5.50;;
26686;SDS011;14298;50.900;4.648;2024-01-07T05:07:37;7.27;;;5.97;;
26686;SDS011;14298;50.900;4.648;2024-01-07T05:10:05;10.97;;;7.07;;
26686;SDS011;14298;50.900;4.648;2024-01-07T05:12:33;9.60;;;6.83;;
26686;SDS011;14298;50.900;4.648;2024-01-07T05:15:01;5.87;;;5.40;;
26686;SDS011;14298;50.900;4.648;2024-01-07T05:17:29;7.83;;;5.70;;
26686;SDS011;14298;50.900;4.648;2024-01-07T05:19:57;6.90;;;6.10;;
26686;SDS011;14298;50.900;4.648;2024-01-07T05:22:25;5.47;;;5.07;;
26686;SDS011;14298;50.900;4.648;2024-01-07T05:24:53;5.83;;;5.27;;
26686;SDS011;14298;50.900;4.648;2024-01-07T05:27:21;6.27;;;5.63;;
26686;SDS011;14298;50.900;4.648;2024-01-07T05:29:49;11.60;;;7.60;;
26686;SDS011;14298;50.900;4.648;2024-01-07T05:32:17;8.60;;;7.63;;
26686;SDS011;14298;50.900;4.648;2024-01-07T05:34:45;8.87;;;7.00;;
26686;SDS011;14298;50.900;4.648;2024-01-07T05:37:13;7.07;;;6.37;;
26686;SDS011;14298;50.900;4.648;2024-01-07T05:39:41;6.57;;;5.13;;
26686;SDS011;14298;50.900;4.648;2024-01-07T05:42:09;6.67;;;6.07;;
26686;SDS011;14298;50.900;4.648;2024-01-07T05:44:37;6.43;;;5.80;;
26686;SDS011;14298;50.900;4.648;2024-01-07T05:47:07;7.17;;;6.43;;
26686;SDS011;14298;50.900;4.648;2024-01-07T05:49:35;7.17;;;6.23;;
26686;SDS011;14298;50.900;4.648;2024-01-07T05:52:03;5.57;;;5.07;;
26686;SDS011;14298;50.900;4.648;2024-01-07T05:54:31;8.33;;;7.53;;
26686;SDS011;14298;50.900;4.648;2024-01-07T05:56:59;10.57;;;6.90;;
26686;SDS011;14298;50.900;4.648;2024-01-07T05:59:27;7.53;;;6.83;;
26686;SDS011;14298;50.900;4.648;2024-01-07T06:01:58;12.57;;;6.83;;
26686;SDS011;14298;50.900;4.648;2024-01-07T06:04:26;7.47;;;6.37;;
26686;SDS011;14298;50.900;4.648;2024-01-07T06:06:54;6.37;;;5.77;;
26686;SDS011;14298;50.900;4.648;2024-01-07T06:09:22;10.27;;;5.40;;
26686;SDS011;14298;50.900;4.648;2024-01-07T06:11:50;6.47;;;5.43;;
26686;SDS011;14298;50.900;4.648;2024-01-07T06:14:18;4.70;;;4.30;;
26686;SDS011;14298;50.900;4.648;2024-01-07T06:16:46;11.17;;;6.23;;
26686;SDS011;14298;50.900;4.648;2024-01-07T06:19:16;7.27;;;5.90;;
26686;SDS011;14298;50.900;4.648;2024-01-07T06:21:44;10.03;;;5.77;;
26686;SDS011;14298;50.900;4.648;2024-01-07T06:24:12;14.57;;;7.67;;
26686;SDS011;14298;50.900;4.648;2024-01-07T06:26:40;9.80;;;6.77;;
26686;SDS011;14298;50.900;4.648;2024-01-07T06:29:08;8.43;;;7.63;;
26686;SDS011;14298;50.900;4.648;2024-01-07T06:31:42;9.53;;;6.90;;
26686;SDS011;14298;50.900;4.648;2024-01-07T06:34:06;9.20;;;6.63;;
26686;SDS011;14298;50.900;4.648;2024-01-07T06:36:34;11.00;;;7.00;;
26686;SDS011;14298;50.900;4.648;2024-01-07T06:39:02;5.80;;;4.97;;
26686;SDS011;14298;50.900;4.648;2024-01-07T06:41:31;10.30;;;7.80;;
26686;SDS011;14298;50.900;4.648;2024-01-07T06:43:59;10.17;;;6.23;;
26686;SDS011;14298;50.900;4.648;2024-01-07T06:46:27;12.47;;;6.50;;
26686;SDS011;14298;50.900;4.648;2024-01-07T06:48:55;11.70;;;7.13;;
26686;SDS011;14298;50.900;4.648;2024-01-07T06:51:23;10.27;;;7.27;;
26686;SDS011;14298;50.900;4.648;2024-01-07T06:53:51;17.23;;;7.87;;
26686;SDS011;14298;50.900;4.648;2024-01-07T06:56:19;9.57;;;7.60;;
26686;SDS011;14298;50.900;4.648;2024-01-07T06:58:47;6.87;;;6.03;;
26686;SDS011;14298;50.900;4.648;2024-01-07T07:01:20;16.37;;;8.23;;
26686;SDS011;14298;50.900;4.648;2024-01-07T07:03:52;17.13;;;8.67;;
26686;SDS011;14298;50.900;4.648;2024-01-07T07:06:20;11.10;;;6.77;;
26686;SDS011;14298;50.900;4.648;2024-01-07T07:08:48;9.57;;;7.43;;
26686;SDS011;14298;50.900;4.648;2024-01-07T07:11:16;9.80;;;7.50;;
26686;SDS011;14298;50.900;4.648;2024-01-07T07:13:44;12.00;;;7.93;;
26686;SDS011;14298;50.900;4.648;2024-01-07T07:16:15;11.87;;;7.23;;
26686;SDS011;14298;50.900;4.648;2024-01-07T07:18:43;6.93;;;6.03;;
26686;SDS011;14298;50.900;4.648;2024-01-07T07:21:11;11.50;;;7.47;;
26686;SDS011;14298;50.900;4.648;2024-01-07T07:23:39;7.23;;;6.30;;
26686;SDS011;14298;50.900;4.648;2024-01-07T07:26:07;10.60;;;8.53;;
26686;SDS011;14298;50.900;4.648;2024-01-07T07:28:35;10.17;;;7.73;;
26686;SDS011;14298;50.900;4.648;2024-01-07T07:31:03;9.07;;;6.20;;
26686;SDS011;14298;50.900;4.648;2024-01-07T07:33:31;8.50;;;6.97;;
26686;SDS011;14298;50.900;4.648;2024-01-07T07:35:59;11.70;;;7.90;;
26686;SDS011;14298;50.900;4.648;2024-01-07T07:38:27;7.73;;;7.00;;
26686;SDS011;14298;50.900;4.648;2024-01-07T07:40:55;10.13;;;8.00;;
26686;SDS011;14298;50.900;4.648;2024-01-07T07:43:23;9.70;;;7.07;;
26686;SDS011;14298;50.900;4.648;2024-01-07T07:45:52;12.97;;;9.50;;
26686;SDS011;14298;50.900;4.648;2024-01-07T07:48:20;9.90;;;6.93;;
26686;SDS011;14298;50.900;4.648;2024-01-07T07:50:48;7.33;;;6.10;;
26686;SDS011;14298;50.900;4.648;2024-01-07T07:53:16;8.93;;;7.83;;
26686;SDS011;14298;50.900;4.648;2024-01-07T07:55:45;8.10;;;7.30;;
26686;SDS011;14298;50.900;4.648;2024-01-07T07:58:13;10.20;;;7.33;;
26686;SDS011;14298;50.900;4.648;2024-01-07T08:00:41;5.37;;;4.87;;
26686;SDS011;14298;50.900;4.648;2024-01-07T08:03:09;10.30;;;7.17;;
26686;SDS011;14298;50.900;4.648;2024-01-07T08:05:37;14.53;;;7.43;;
26686;SDS011;14298;50.900;4.648;2024-01-07T08:08:05;7.23;;;6.47;;
26686;SDS011;14298;50.900;4.648;2024-01-07T08:10:33;5.23;;;4.23;;
26686;SDS011;14298;50.900;4.648;2024-01-07T08:13:02;9.17;;;5.03;;
26686;SDS011;14298;50.900;4.648;2024-01-07T08:15:30;4.73;;;3.70;;
26686;SDS011;14298;50.900;4.648;2024-01-07T08:17:58;5.10;;;4.70;;
26686;SDS011;14298;50.900;4.648;2024-01-07T08:20:26;5.00;;;4.50;;
26686;SDS011;14298;50.900;4.648;2024-01-07T08:22:54;5.20;;;4.73;;
26686;SDS011;14298;50.900;4.648;2024-01-07T08:25:22;7.27;;;5.03;;
26686;SDS011;14298;50.900;4.648;2024-01-07T08:27:50;8.90;;;6.70;;
26686;SDS011;14298;50.900;4.648;2024-01-07T08:30:18;7.97;;;7.20;;
26686;SDS011;14298;50.900;4.648;2024-01-07T08:32:46;9.23;;;8.20;;
26686;SDS011;14298;50.900;4.648;2024-01-07T08:35:14;13.20;;;8.90;;
26686;SDS011;14298;50.900;4.648;2024-01-07T08:37:42;10.40;;;6.47;;
26686;SDS011;14298;50.900;4.648;2024-01-07T08:40:11;6.00;;;5.47;;
26686;SDS011;14298;50.900;4.648;2024-01-07T08:42:41;5.93;;;5.43;;
26686;SDS011;14298;50.900;4.648;2024-01-07T08:45:09;6.90;;;5.57;;
26686;SDS011;14298;50.900;4.648;2024-01-07T08:47:38;9.40;;;5.77;;
26686;SDS011;14298;50.900;4.648;2024-01-07T08:50:07;5.47;;;4.43;;
26686;SDS011;14298;50.900;4.648;2024-01-07T08:52:35;4.90;;;3.43;;
26686;SDS011;14298;50.900;4.648;2024-01-07T08:55:08;5.80;;;5.27;;
26686;SDS011;14298;50.900;4.648;2024-01-07T08:57:33;4.53;;;4.23;;
26686;SDS011;14298;50.900;4.648;2024-01-07T09:00:01;5.80;;;5.03;;
26686;SDS011;14298;50.900;4.648;2024-01-07T09:02:29;5.63;;;5.13;;
26686;SDS011;14298;50.900;4.648;2024-01-07T09:04:57;4.00;;;3.70;;
26686;SDS011;14298;50.900;4.648;2024-01-07T09:07:26;4.93;;;4.47;;
26686;SDS011;14298;50.900;4.648;2024-01-07T09:09:54;4.23;;;3.93;;
26686;SDS011;14298;50.900;4.648;2024-01-07T09:12:23;4.77;;;4.37;;
26686;SDS011;14298;50.900;4.648;2024-01-07T09:14:51;3.17;;;2.47;;
26686;SDS011;14298;50.900;4.648;2024-01-07T09:17:19;6.57;;;4.63;;
26686;SDS011;14298;50.900;4.648;2024-01-07T09:19:48;4.83;;;4.30;;
26686;SDS011;14298;50.900;4.648;2024-01-07T09:22:16;10.57;;;3.97;;
26686;SDS011;14298;50.900;4.648;2024-01-07T09:24:44;5.13;;;4.20;;
26686;SDS011;14298;50.900;4.648;2024-01-07T09:27:12;4.50;;;4.10;;
26686;SDS011;14298;50.900;4.648;2024-01-07T09:29:41;3.43;;;3.23;;
26686;SDS011;14298;50.900;4.648;2024-01-07T09:32:09;7.50;;;4.57;;
26686;SDS011;14298;50.900;4.648;2024-01-07T09:34:37;4.97;;;3.87;;
26686;SDS011;14298;50.900;4.648;2024-01-07T09:37:05;3.97;;;3.63;;
26686;SDS011;14298;50.900;4.648;2024-01-07T09:39:33;3.93;;;3.53;;
26686;SDS011;14298;50.900;4.648;2024-01-07T09:42:01;4.47;;;4.03;;
26686;SDS011;14298;50.900;4.648;2024-01-07T09:44:29;5.30;;;3.53;;
26686;SDS011;14298;50.900;4.648;2024-01-07T09:46:59;4.43;;;4.03;;
26686;SDS011;14298;50.900;4.648;2024-01-07T09:49:27;5.77;;;4.83;;
26686;SDS011;14298;50.900;4.648;2024-01-07T09:51:56;6.03;;;4.40;;
26686;SDS011;14298;50.900;4.648;2024-01-07T09:54:24;4.93;;;4.53;;
26686;SDS011;14298;50.900;4.648;2024-01-07T09:56:55;4.67;;;3.60;;
26686;SDS011;14298;50.900;4.648;2024-01-07T09:59:23;5.20;;;4.63;;
26686;SDS011;14298;50.900;4.648;2024-01-07T10:01:51;5.70;;;5.03;;
26686;SDS011;14298;50.900;4.648;2024-01-07T10:04:19;4.70;;;4.30;;
26686;SDS011;14298;50.900;4.648;2024-01-07T10:06:47;5.43;;;4.90;;
26686;SDS011;14298;50.900;4.648;2024-01-07T10:09:23;5.33;;;4.80;;
26686;SDS011;14298;50.900;4.648;2024-01-07T10:11:53;4.90;;;4.50;;
26686;SDS011;14298;50.900;4.648;2024-01-07T10:14:21;5.73;;;4.50;;
26686;SDS011;14298;50.900;4.648;2024-01-07T10:16:54;5.93;;;5.30;;
26686;SDS011;14298;50.900;4.648;2024-01-07T10:19:23;5.60;;;4.63;;
26686;SDS011;14298;50.900;4.648;2024-01-07T10:22:01;5.43;;;4.77;;
26686;SDS011;14298;50.900;4.648;2024-01-07T10:24:36;6.77;;;5.73;;
26686;SDS011;14298;50.900;4.648;2024-01-07T10:27:07;6.77;;;5.13;;
26686;SDS011;14298;50.900;4.648;2024-01-07T10:29:36;4.70;;;4.30;;
26686;SDS011;14298;50.900;4.648;2024-01-07T10:32:05;6.17;;;5.67;;
26686;SDS011;14298;50.900;4.648;2024-01-07T10:34:34;11.07;;;4.13;;
26686;SDS011;14298;50.900;4.648;2024-01-07T10:37:03;5.23;;;4.73;;
26686;SDS011;14298;50.900;4.648;2024-01-07T10:39:31;4.90;;;4.47;;
26686;SDS011;14298;50.900;4.648;2024-01-07T10:41:59;4.27;;;3.93;;
26686;SDS011;14298;50.900;4.648;2024-01-07T10:44:33;4.13;;;3.77;;
26686;SDS011;14298;50.900;4.648;2024-01-07T10:46:57;4.07;;;3.77;;
26686;SDS011;14298;50.900;4.648;2024-01-07T10:49:26;4.67;;;4.20;;
26686;SDS011;14298;50.900;4.648;2024-01-07T10:54:28;5.20;;;4.43;;
26686;SDS011;14298;50.900;4.648;2024-01-07T10:56:58;4.10;;;3.80;;
26686;SDS011;14298;50.900;4.648;2024-01-07T10:59:26;5.10;;;4.60;;
26686;SDS011;14298;50.900;4.648;2024-01-07T11:01:55;5.80;;;4.30;;
26686;SDS011;14298;50.900;4.648;2024-01-07T11:04:32;4.67;;;4.03;;
26686;SDS011;14298;50.900;4.648;2024-01-07T11:07:00;4.07;;;3.77;;
26686;SDS011;14298;50.900;4.648;2024-01-07T11:12:02;4.73;;;4.37;;
26686;SDS011;14298;50.900;4.648;2024-01-07T11:14:35;5.07;;;4.60;;
26686;SDS011;14298;50.900;4.648;2024-01-07T11:17:06;9.60;;;4.10;;
26686;SDS011;14298;50.900;4.648;2024-01-07T11:19:38;5.43;;;4.87;;
26686;SDS011;14298;50.900;4.648;2024-01-07T11:22:25;3.93;;;3.63;;
26686;SDS011;14298;50.900;4.648;2024-01-07T11:25:02;7.37;;;4.70;;
26686;SDS011;14298;50.900;4.648;2024-01-07T11:27:25;4.27;;;3.93;;
26686;SDS011;14298;50.900;4.648;2024-01-07T11:30:02;9.63;;;5.53;;
26686;SDS011;14298;50.900;4.648;2024-01-07T11:32:23;6.17;;;4.43;;
26686;SDS011;14298;50.900;4.648;2024-01-07T11:34:53;4.57;;;4.23;;
26686;SDS011;14298;50.900;4.648;2024-01-07T11:37:23;4.00;;;3.70;;
26686;SDS011;14298;50.900;4.648;2024-01-07T11:39:54;5.13;;;4.60;;
26686;SDS011;14298;50.900;4.648;2024-01-07T11:42:22;7.37;;;4.27;;
26686;SDS011;14298;50.900;4.648;2024-01-07T11:44:54;6.03;;;4.10;;
26686;SDS011;14298;50.900;4.648;2024-01-07T11:47:22;5.73;;;4.70;;
26686;SDS011;14298;50.900;4.648;2024-01-07T11:49:51;4.77;;;4.30;;
26686;SDS011;14298;50.900;4.648;2024-01-07T11:52:20;6.07;;;4.67;;
26686;SDS011;14298;50.900;4.648;2024-01-07T11:54:48;6.17;;;5.30;;
26686;SDS011;14298;50.900;4.648;2024-01-07T11:57:17;7.67;;;5.47;;
26686;SDS011;14298;50.900;4.648;2024-01-07T11:59:45;4.37;;;4.03;;
26686;SDS011;14298;50.900;4.648;2024-01-07T12:02:13;4.43;;;4.13;;
26686;SDS011;14298;50.900;4.648;2024-01-07T12:04:42;9.17;;;4.53;;
26686;SDS011;14298;50.900;4.648;2024-01-07T12:07:10;5.37;;;4.43;;
26686;SDS011;14298;50.900;4.648;2024-01-07T12:09:40;7.07;;;6.07;;
26686;SDS011;14298;50.900;4.648;2024-01-07T12:12:07;7.07;;;4.33;;
26686;SDS011;14298;50.900;4.648;2024-01-07T12:14:36;10.03;;;5.57;;
26686;SDS011;14298;50.900;4.648;2024-01-07T12:17:04;7.40;;;4.50;;
26686;SDS011;14298;50.900;4.648;2024-01-07T12:19:32;8.13;;;5.50;;
26686;SDS011;14298;50.900;4.648;2024-01-07T12:22:01;4.80;;;4.40;;
26686;SDS011;14298;50.900;4.648;2024-01-07T12:24:29;5.30;;;4.17;;
26686;SDS011;14298;50.900;4.648;2024-01-07T12:27:03;5.77;;;4.97;;
26686;SDS011;14298;50.900;4.648;2024-01-07T12:29:26;5.83;;;5.13;;
26686;SDS011;14298;50.900;4.648;2024-01-07T12:31:54;4.60;;;4.20;;
26686;SDS011;14298;50.900;4.648;2024-01-07T12:34:22;4.57;;;4.27;;
26686;SDS011;14298;50.900;4.648;2024-01-07T12:36:50;7.27;;;4.50;;
26686;SDS011;14298;50.900;4.648;2024-01-07T12:39:20;3.80;;;3.47;;
26686;SDS011;14298;50.900;4.648;2024-01-07T12:41:48;4.40;;;4.10;;
26686;SDS011;14298;50.900;4.648;2024-01-07T12:44:16;6.57;;;5.20;;
26686;SDS011;14298;50.900;4.648;2024-01-07T12:46:44;5.20;;;4.77;;
26686;SDS011;14298;50.900;4.648;2024-01-07T12:49:12;4.47;;;4.07;;
26686;SDS011;14298;50.900;4.648;2024-01-07T12:51:40;3.90;;;3.53;;
26686;SDS011;14298;50.900;4.648;2024-01-07T12:54:09;3.30;;;3.00;;
26686;SDS011;14298;50.900;4.648;2024-01-07T12:56:37;3.37;;;3.13;;
26686;SDS011;14298;50.900;4.648;2024-01-07T12:59:05;3.73;;;3.43;;
26686;SDS011;14298;50.900;4.648;2024-01-07T13:01:33;4.97;;;3.83;;
26686;SDS011;14298;50.900;4.648;2024-01-07T13:06:50;11.23;;;4.30;;
26686;SDS011;14298;50.900;4.648;2024-01-07T13:09:18;5.60;;;4.23;;
26686;SDS011;14298;50.900;4.648;2024-01-07T13:11:46;7.90;;;4.43;;
26686;SDS011;14298;50.900;4.648;2024-01-07T13:14:14;3.57;;;3.27;;
26686;SDS011;14298;50.900;4.648;2024-01-07T13:16:42;3.60;;;3.33;;
26686;SDS011;14298;50.900;4.648;2024-01-07T13:19:10;6.40;;;4.03;;
26686;SDS011;14298;50.900;4.648;2024-01-07T13:21:38;3.47;;;3.17;;
26686;SDS011;14298;50.900;4.648;2024-01-07T13:24:06;3.50;;;2.97;;
26686;SDS011;14298;50.900;4.648;2024-01-07T13:26:34;4.90;;;4.43;;
26686;SDS011;14298;50.900;4.648;2024-01-07T13:29:02;3.97;;;3.57;;
26686;SDS011;14298;50.900;4.648;2024-01-07T13:31:30;4.00;;;3.60;;
26686;SDS011;14298;50.900;4.648;2024-01-07T13:33:59;2.70;;;2.50;;
26686;SDS011;14298;50.900;4.648;2024-01-07T13:36:27;3.40;;;2.87;;
26686;SDS011;14298;50.900;4.648;2024-01-07T13:38:55;3.73;;;3.43;;
26686;SDS011;14298;50.900;4.648;2024-01-07T13:41:23;4.20;;;3.80;;
26686;SDS011;14298;50.900;4.648;2024-01-07T13:43:51;4.33;;;3.47;;
26686;SDS011;14298;50.900;4.648;2024-01-07T13:46:19;3.40;;;3.10;;
26686;SDS011;14298;50.900;4.648;2024-01-07T13:48:48;3.93;;;3.63;;
26686;SDS011;14298;50.900;4.648;2024-01-07T13:51:17;6.67;;;4.13;;
26686;SDS011;14298;50.900;4.648;2024-01-07T13:53:45;4.50;;;3.67;;
26686;SDS011;14298;50.900;4.648;2024-01-07T13:56:13;4.07;;;3.67;;
26686;SDS011;14298;50.900;4.648;2024-01-07T13:58:41;3.67;;;3.37;;
26686;SDS011;14298;50.900;4.648;2024-01-07T14:01:10;3.37;;;3.07;;
26686;SDS011;14298;50.900;4.648;2024-01-07T14:03:38;3.67;;;3.37;;
26686;SDS011;14298;50.900;4.648;2024-01-07T14:06:06;2.93;;;2.73;;
26686;SDS011;14298;50.900;4.648;2024-01-07T14:08:34;3.87;;;2.47;;
26686;SDS011;14298;50.900;4.648;2024-01-07T14:11:02;3.43;;;3.13;;
26686;SDS011;14298;50.900;4.648;2024-01-07T14:13:30;4.83;;;3.63;;
26686;SDS011;14298;50.900;4.648;2024-01-07T14:15:58;5.53;;;4.13;;
26686;SDS011;14298;50.900;4.648;2024-01-07T14:18:26;3.47;;;3.17;;
26686;SDS011;14298;50.900;4.648;2024-01-07T14:20:55;2.60;;;2.43;;
26686;SDS011;14298;50.900;4.648;2024-01-07T14:23:23;3.23;;;2.93;;
26686;SDS011;14298;50.900;4.648;2024-01-07T14:25:51;5.13;;;4.63;;
26686;SDS011;14298;50.900;4.648;2024-01-07T14:28:19;8.07;;;4.67;;
26686;SDS011;14298;50.900;4.648;2024-01-07T14:30:47;3.77;;;3.47;;
26686;SDS011;14298;50.900;4.648;2024-01-07T14:33:15;2.53;;;2.40;;
26686;SDS011;14298;50.900;4.648;2024-01-07T14:35:42;5.33;;;4.80;;
26686;SDS011;14298;50.900;4.648;2024-01-07T14:38:11;3.77;;;3.47;;
26686;SDS011;14298;50.900;4.648;2024-01-07T14:40:39;3.10;;;2.90;;
26686;SDS011;14298;50.900;4.648;2024-01-07T14:43:08;4.07;;;3.70;;
26686;SDS011;14298;50.900;4.648;2024-01-07T14:45:36;4.80;;;4.30;;
26686;SDS011;14298;50.900;4.648;2024-01-07T14:48:04;3.40;;;2.80;;
26686;SDS011;14298;50.900;4.648;2024-01-07T14:50:32;3.57;;;3.30;;
26686;SDS011;14298;50.900;4.648;2024-01-07T14:53:00;3.30;;;3.10;;
26686;SDS011;14298;50.900;4.648;2024-01-07T14:55:28;3.57;;;3.27;;
26686;SDS011;14298;50.900;4.648;2024-01-07T14:57:58;4.33;;;3.53;;
26686;SDS011;14298;50.900;4.648;2024-01-07T15:00:26;4.47;;;4.03;;
26686;SDS011;14298;50.900;4.648;2024-01-07T15:02:54;2.83;;;2.63;;
26686;SDS011;14298;50.900;4.648;2024-01-07T15:05:22;3.23;;;2.93;;
26686;SDS011;14298;50.900;4.648;2024-01-07T15:07:50;3.07;;;2.87;;
26686;SDS011;14298;50.900;4.648;2024-01-07T15:10:18;5.07;;;4.60;;
26686;SDS011;14298;50.900;4.648;2024-01-07T15:12:46;3.43;;;3.13;;
26686;SDS011;14298;50.900;4.648;2024-01-07T15:15:16;3.97;;;3.57;;
26686;SDS011;14298;50.900;4.648;2024-01-07T15:17:45;5.60;;;4.30;;
26686;SDS011;14298;50.900;4.648;2024-01-07T15:20:13;2.57;;;2.37;;
26686;SDS011;14298;50.900;4.648;2024-01-07T15:22:42;4.30;;;3.43;;
26686;SDS011;14298;50.900;4.648;2024-01-07T15:25:10;3.80;;;3.40;;
26686;SDS011;14298;50.900;4.648;2024-01-07T15:27:38;3.43;;;3.00;;
26686;SDS011;14298;50.900;4.648;2024-01-07T15:30:06;3.20;;;3.00;;